createdAt,value
2017-07-23T00:00:35.771Z,0
2017-07-23T00:01:36.070Z,0
2017-07-23T00:02:36.029Z,0
2017-07-23T00:03:36.020Z,0
2017-07-23T00:04:36.010Z,0
2017-07-23T00:05:35.978Z,0
2017-07-23T00:06:35.962Z,0
2017-07-23T00:07:35.933Z,0
2017-07-23T00:08:35.916Z,0
2017-07-23T00:09:35.900Z,0
2017-07-23T00:10:35.871Z,0
2017-07-23T00:11:35.547Z,0
2017-07-23T00:12:35.830Z,0
2017-07-23T00:13:35.805Z,0
2017-07-23T00:14:35.800Z,0
2017-07-23T00:15:35.775Z,0
2017-07-23T00:16:35.810Z,0
2017-07-23T00:17:35.735Z,0
2017-07-23T00:18:35.722Z,0
2017-07-23T00:19:35.409Z,0
2017-07-23T00:20:35.683Z,0
2017-07-23T00:21:35.656Z,0
2017-07-23T00:22:35.635Z,0
2017-07-23T00:23:35.636Z,0
2017-07-23T00:24:35.592Z,0
2017-07-23T00:25:35.307Z,0
2017-07-23T00:26:35.574Z,0
2017-07-23T00:27:35.537Z,0
2017-07-23T00:28:35.517Z,0
2017-07-23T00:29:35.500Z,0
2017-07-23T00:30:35.476Z,0
2017-07-23T00:31:35.462Z,0
2017-07-23T00:32:35.430Z,0
2017-07-23T00:33:35.420Z,0
2017-07-23T00:34:35.415Z,0
2017-07-23T00:35:35.383Z,0
2017-07-23T00:36:35.413Z,0
2017-07-23T00:37:35.337Z,0
2017-07-23T00:38:35.316Z,0
2017-07-23T00:39:35.305Z,0
2017-07-23T00:40:35.598Z,0
2017-07-23T00:41:35.885Z,0
2017-07-23T00:42:36.575Z,0
2017-07-23T00:43:36.097Z,0
2017-07-23T00:44:36.685Z,0
2017-07-23T00:45:36.136Z,0
2017-07-23T00:46:36.385Z,0
2017-07-23T00:47:36.396Z,0
2017-07-23T00:48:36.283Z,0
2017-07-23T00:49:35.760Z,0
2017-07-23T00:50:35.970Z,0
2017-07-23T00:51:36.301Z,0
2017-07-23T00:52:36.085Z,0
2017-07-23T00:53:36.718Z,0
2017-07-23T00:54:35.981Z,0
2017-07-23T00:55:36.326Z,0
2017-07-23T00:56:36.541Z,0
2017-07-23T00:57:36.174Z,0
2017-07-23T00:58:36.559Z,0
2017-07-23T00:59:36.473Z,0
2017-07-23T01:00:36.450Z,0
2017-07-23T01:01:36.439Z,0
2017-07-23T01:02:36.343Z,0
2017-07-23T01:03:36.245Z,0
2017-07-23T01:04:36.174Z,0
2017-07-23T01:05:36.298Z,0
2017-07-23T01:06:36.109Z,0
2017-07-23T01:07:35.929Z,0
2017-07-23T01:08:35.909Z,0
2017-07-23T01:09:35.907Z,0
2017-07-23T01:10:36.007Z,0
2017-07-23T01:11:35.575Z,0
2017-07-23T01:12:36.008Z,0
2017-07-23T01:13:35.935Z,0
2017-07-23T01:14:35.713Z,0
2017-07-23T01:15:34.279Z,0
2017-07-23T01:16:34.574Z,0
2017-07-23T01:17:34.596Z,0
2017-07-23T01:18:34.519Z,0
2017-07-23T01:19:34.517Z,0
2017-07-23T01:20:34.476Z,0
2017-07-23T01:21:34.457Z,0
2017-07-23T01:22:34.450Z,0
2017-07-23T01:23:34.420Z,0
2017-07-23T01:24:34.400Z,0
2017-07-23T01:25:34.377Z,0
2017-07-23T01:26:34.369Z,0
2017-07-23T01:27:34.332Z,0
2017-07-23T01:28:34.335Z,0
2017-07-23T01:29:34.302Z,0
2017-07-23T01:30:34.284Z,0
2017-07-23T01:31:34.254Z,0
2017-07-23T01:32:34.242Z,0
2017-07-23T01:33:33.918Z,0
2017-07-23T01:34:34.209Z,0
2017-07-23T01:35:34.179Z,0
2017-07-23T01:36:34.177Z,0
2017-07-23T01:37:34.141Z,0
2017-07-23T01:38:34.130Z,0
2017-07-23T01:39:34.105Z,0
2017-07-23T01:40:34.078Z,0
2017-07-23T01:41:34.059Z,0
2017-07-23T01:42:33.438Z,0
2017-07-23T01:43:34.018Z,0
2017-07-23T01:44:34.009Z,0
2017-07-23T01:45:33.978Z,0
2017-07-23T01:46:33.963Z,0
2017-07-23T01:47:33.944Z,0
2017-07-23T01:48:33.920Z,0
2017-07-23T01:49:33.905Z,0
2017-07-23T01:50:33.892Z,0
2017-07-23T01:51:33.917Z,0
2017-07-23T01:52:33.843Z,0
2017-07-23T01:53:33.824Z,0
2017-07-23T01:54:33.825Z,0
2017-07-23T01:55:33.787Z,0
2017-07-23T01:56:33.761Z,0
2017-07-23T01:57:33.753Z,0
2017-07-23T01:58:33.740Z,0
2017-07-23T01:59:33.724Z,0
2017-07-23T02:00:33.688Z,0
2017-07-23T02:01:33.670Z,0
2017-07-23T02:02:33.688Z,0
2017-07-23T02:03:33.682Z,0
2017-07-23T02:04:33.597Z,0
2017-07-23T02:05:33.587Z,0
2017-07-23T02:06:33.252Z,0
2017-07-23T02:07:33.585Z,0
2017-07-23T02:08:33.510Z,0
2017-07-23T02:09:33.491Z,0
2017-07-23T02:10:33.483Z,0
2017-07-23T02:11:33.456Z,0
2017-07-23T02:12:33.436Z,0
2017-07-23T02:13:33.410Z,0
2017-07-23T02:14:33.406Z,0
2017-07-23T02:15:33.379Z,0
2017-07-23T02:16:33.112Z,0
2017-07-23T02:17:33.325Z,0
2017-07-23T02:18:33.318Z,0
2017-07-23T02:19:33.296Z,0
2017-07-23T02:20:33.273Z,0
2017-07-23T02:21:32.952Z,0
2017-07-23T02:22:32.933Z,0
2017-07-23T02:23:33.208Z,0
2017-07-23T02:24:33.211Z,0
2017-07-23T02:25:33.219Z,0
2017-07-23T02:26:33.152Z,0
2017-07-23T02:27:33.193Z,0
2017-07-23T02:28:33.115Z,0
2017-07-23T02:29:33.351Z,0
2017-07-23T02:30:33.080Z,0
2017-07-23T02:31:33.056Z,0
2017-07-23T02:32:33.043Z,0
2017-07-23T02:33:33.020Z,0
2017-07-23T02:34:32.990Z,0
2017-07-23T02:35:32.983Z,0
2017-07-23T02:36:32.950Z,0
2017-07-23T02:37:32.933Z,0
2017-07-23T02:38:32.917Z,0
2017-07-23T02:39:32.888Z,0
2017-07-23T02:40:32.887Z,0
2017-07-23T02:41:32.874Z,0
2017-07-23T02:42:32.843Z,0
2017-07-23T02:43:32.894Z,0
2017-07-23T02:44:32.784Z,0
2017-07-23T02:45:32.783Z,0
2017-07-23T02:46:32.764Z,0
2017-07-23T02:47:32.805Z,0
2017-07-23T02:48:32.729Z,0
2017-07-23T02:49:32.695Z,0
2017-07-23T02:50:32.381Z,0
2017-07-23T02:51:32.650Z,0
2017-07-23T02:52:32.635Z,0
2017-07-23T02:53:32.662Z,0
2017-07-23T02:54:32.585Z,0
2017-07-23T02:55:32.573Z,0
2017-07-23T02:56:32.247Z,0
2017-07-23T02:57:32.548Z,0
2017-07-23T02:58:32.501Z,0
2017-07-23T02:59:32.486Z,4
2017-07-23T03:00:32.465Z,4
2017-07-23T03:01:32.454Z,4
2017-07-23T03:02:32.430Z,4
2017-07-23T03:03:32.424Z,4
2017-07-23T03:04:32.387Z,4
2017-07-23T03:05:32.372Z,4
2017-07-23T03:06:32.340Z,4
2017-07-23T03:07:32.330Z,4
2017-07-23T03:08:32.303Z,4
2017-07-23T03:09:32.286Z,8
2017-07-23T03:10:32.266Z,8
2017-07-23T03:11:32.241Z,8
2017-07-23T03:12:32.221Z,12
2017-07-23T03:13:32.207Z,12
2017-07-23T03:14:32.184Z,12
2017-07-23T03:15:32.167Z,12
2017-07-23T03:16:32.157Z,16
2017-07-23T03:17:32.125Z,12
2017-07-23T03:18:32.105Z,16
2017-07-23T03:19:32.094Z,24
2017-07-23T03:20:32.081Z,24
2017-07-23T03:21:31.790Z,24
2017-07-23T03:22:32.020Z,24
2017-07-23T03:23:31.701Z,36
2017-07-23T03:24:31.983Z,36
2017-07-23T03:25:31.662Z,28
2017-07-23T03:26:31.953Z,32
2017-07-23T03:27:31.934Z,52
2017-07-23T03:28:31.902Z,68
2017-07-23T03:29:31.883Z,72
2017-07-23T03:30:31.868Z,80
2017-07-23T03:31:31.893Z,80
2017-07-23T03:32:31.824Z,72
2017-07-23T03:33:31.799Z,72
2017-07-23T03:34:31.775Z,84
2017-07-23T03:35:31.774Z,64
2017-07-23T03:36:31.789Z,100
2017-07-23T03:37:31.729Z,120
2017-07-23T03:38:31.702Z,128
2017-07-23T03:39:31.681Z,136
2017-07-23T03:40:31.660Z,168
2017-07-23T03:41:31.663Z,196
2017-07-23T03:42:31.627Z,220
2017-07-23T03:43:31.656Z,232
2017-07-23T03:44:31.592Z,248
2017-07-23T03:45:31.560Z,268
2017-07-23T03:46:31.791Z,296
2017-07-23T03:47:31.517Z,324
2017-07-23T03:48:31.500Z,348
2017-07-23T03:49:31.481Z,360
2017-07-23T03:50:31.509Z,348
2017-07-23T03:51:31.437Z,332
2017-07-23T03:52:31.421Z,312
2017-07-23T03:53:31.404Z,296
2017-07-23T03:54:31.375Z,292
2017-07-23T03:55:31.360Z,288
2017-07-23T03:56:31.344Z,296
2017-07-23T03:57:31.031Z,312
2017-07-23T03:58:31.353Z,316
2017-07-23T03:59:31.289Z,296
2017-07-23T04:00:31.265Z,296
2017-07-23T04:01:31.260Z,328
2017-07-23T04:02:31.241Z,380
2017-07-23T04:03:31.206Z,348
2017-07-23T04:04:31.178Z,268
2017-07-23T04:05:31.168Z,204
2017-07-23T04:06:31.150Z,244
2017-07-23T04:07:31.130Z,376
2017-07-23T04:08:31.104Z,420
2017-07-23T04:09:31.075Z,536
2017-07-23T04:10:31.053Z,688
2017-07-23T04:11:31.042Z,820
2017-07-23T04:12:30.715Z,920
2017-07-23T04:13:30.694Z,1020
2017-07-23T04:14:30.972Z,1116
2017-07-23T04:15:30.657Z,1136
2017-07-23T04:16:30.338Z,1204
2017-07-23T04:17:30.911Z,1268
2017-07-23T04:18:30.613Z,1316
2017-07-23T04:19:30.875Z,1396
2017-07-23T04:20:30.615Z,1512
2017-07-23T04:21:30.562Z,1584
2017-07-23T04:22:30.819Z,1504
2017-07-23T04:23:30.802Z,1368
2017-07-23T04:24:30.476Z,1184
2017-07-23T04:25:30.756Z,1000
2017-07-23T04:26:30.734Z,828
2017-07-23T04:27:30.413Z,692
2017-07-23T04:28:30.699Z,580
2017-07-23T04:29:30.400Z,504
2017-07-23T04:30:30.655Z,464
2017-07-23T04:31:30.634Z,484
2017-07-23T04:32:30.609Z,524
2017-07-23T04:33:30.605Z,572
2017-07-23T04:34:30.622Z,604
2017-07-23T04:35:30.549Z,660
2017-07-23T04:36:30.532Z,672
2017-07-23T04:37:30.505Z,652
2017-07-23T04:38:30.493Z,612
2017-07-23T04:39:30.494Z,592
2017-07-23T04:40:30.145Z,588
2017-07-23T04:41:30.440Z,580
2017-07-23T04:42:30.461Z,556
2017-07-23T04:43:30.391Z,516
2017-07-23T04:44:30.071Z,468
2017-07-23T04:45:30.054Z,416
2017-07-23T04:46:30.325Z,368
2017-07-23T04:47:30.304Z,336
2017-07-23T04:48:29.987Z,320
2017-07-23T04:49:30.270Z,332
2017-07-23T04:50:30.254Z,368
2017-07-23T04:51:29.925Z,444
2017-07-23T04:52:30.203Z,568
2017-07-23T04:53:29.885Z,716
2017-07-23T04:54:30.170Z,888
2017-07-23T04:55:30.243Z,1004
2017-07-23T04:56:30.122Z,968
2017-07-23T04:57:30.104Z,1256
2017-07-23T04:58:30.077Z,1200
2017-07-23T04:59:30.075Z,1172
2017-07-23T05:00:30.041Z,1320
2017-07-23T05:01:30.031Z,1412
2017-07-23T05:02:30.008Z,1488
2017-07-23T05:03:29.983Z,1492
2017-07-23T05:04:29.976Z,1464
2017-07-23T05:05:29.938Z,1416
2017-07-23T05:06:29.933Z,1264
2017-07-23T05:07:29.896Z,1236
2017-07-23T05:08:29.879Z,1332
2017-07-23T05:09:29.869Z,1604
2017-07-23T05:10:29.848Z,1924
2017-07-23T05:11:29.817Z,2036
2017-07-23T05:12:29.854Z,2024
2017-07-23T05:13:29.782Z,2036
2017-07-23T05:14:29.769Z,2020
2017-07-23T05:15:29.743Z,2000
2017-07-23T05:16:29.739Z,1956
2017-07-23T05:17:29.392Z,1984
2017-07-23T05:18:29.687Z,2104
2017-07-23T05:19:29.666Z,2360
2017-07-23T05:20:29.629Z,2576
2017-07-23T05:21:29.617Z,2864
2017-07-23T05:22:29.612Z,3308
2017-07-23T05:23:29.581Z,3596
2017-07-23T05:24:29.913Z,3928
2017-07-23T05:25:29.238Z,4284
2017-07-23T05:26:29.525Z,4528
2017-07-23T05:27:29.504Z,4936
2017-07-23T05:28:29.522Z,5104
2017-07-23T05:29:29.461Z,5276
2017-07-23T05:30:29.434Z,5832
2017-07-23T05:31:29.428Z,6576
2017-07-23T05:32:29.092Z,7756
2017-07-23T05:33:29.390Z,8764
2017-07-23T05:34:29.362Z,9532
2017-07-23T05:35:29.360Z,9620
2017-07-23T05:36:29.315Z,8756
2017-07-23T05:37:29.296Z,7560
2017-07-23T05:38:28.981Z,6780
2017-07-23T05:39:28.953Z,6516
2017-07-23T05:40:29.289Z,6516
2017-07-23T05:41:29.215Z,7120
2017-07-23T05:42:29.193Z,8116
2017-07-23T05:43:29.175Z,15840
2017-07-23T05:44:28.857Z,9220
2017-07-23T05:45:29.130Z,9176
2017-07-23T05:46:29.113Z,11324
2017-07-23T05:47:29.090Z,8688
2017-07-23T05:48:29.072Z,10176
2017-07-23T05:49:29.103Z,14308
2017-07-23T05:50:29.043Z,11496
2017-07-23T05:51:29.025Z,13676
2017-07-23T05:52:29.002Z,19200
2017-07-23T05:53:28.680Z,19584
2017-07-23T05:54:28.959Z,19104
2017-07-23T05:55:29.200Z,19360
2017-07-23T05:56:28.628Z,19264
2017-07-23T05:57:28.596Z,17248
2017-07-23T05:58:28.874Z,7948
2017-07-23T05:59:28.571Z,9884
2017-07-23T06:00:28.850Z,20736
2017-07-23T06:01:28.833Z,20992
2017-07-23T06:02:28.804Z,20576
2017-07-23T06:03:28.792Z,21312
2017-07-23T06:04:28.522Z,21952
2017-07-23T06:05:28.808Z,22080
2017-07-23T06:06:28.756Z,21888
2017-07-23T06:07:28.720Z,20864
2017-07-23T06:08:28.707Z,14456
2017-07-23T06:09:28.690Z,17152
2017-07-23T06:10:28.664Z,19424
2017-07-23T06:11:28.361Z,22368
2017-07-23T06:12:28.733Z,21760
2017-07-23T06:13:28.313Z,21920
2017-07-23T06:14:28.298Z,24352
2017-07-23T06:15:28.634Z,22208
2017-07-23T06:16:28.614Z,23392
2017-07-23T06:17:28.560Z,26912
2017-07-23T06:18:28.539Z,34784
2017-07-23T06:19:28.519Z,32608
2017-07-23T06:20:28.508Z,33504
2017-07-23T06:21:28.489Z,39008
2017-07-23T06:22:28.473Z,31776
2017-07-23T06:23:28.453Z,32352
2017-07-23T06:24:28.947Z,33888
2017-07-23T06:25:28.131Z,34176
2017-07-23T06:26:28.421Z,14652
2017-07-23T06:27:28.097Z,25440
2017-07-23T06:28:28.482Z,32960
2017-07-23T06:29:28.366Z,18272
2017-07-23T06:30:28.353Z,21056
2017-07-23T06:31:28.390Z,27552
2017-07-23T06:32:28.033Z,17568
2017-07-23T06:33:28.352Z,34112
2017-07-23T06:34:28.321Z,34048
2017-07-23T06:35:28.569Z,25152
2017-07-23T06:36:28.618Z,30464
2017-07-23T06:37:28.255Z,28416
2017-07-23T06:38:28.234Z,32416
2017-07-23T06:39:28.271Z,30784
2017-07-23T06:40:28.201Z,32000
2017-07-23T06:41:28.194Z,31264
2017-07-23T06:42:28.187Z,27040
2017-07-23T06:43:28.159Z,27808
2017-07-23T06:44:28.149Z,29536
2017-07-23T06:45:28.133Z,32288
2017-07-23T06:46:27.830Z,31104
2017-07-23T06:47:28.121Z,30464
2017-07-23T06:48:28.350Z,30720
2017-07-23T06:49:28.140Z,32032
2017-07-23T06:50:28.072Z,33536
2017-07-23T06:51:28.052Z,32896
2017-07-23T06:52:28.056Z,30752
2017-07-23T06:53:28.032Z,30304
2017-07-23T06:54:28.064Z,32032
2017-07-23T06:55:28.010Z,34240
2017-07-23T06:56:27.988Z,36800
2017-07-23T06:57:27.989Z,36864
2017-07-23T06:58:27.963Z,34592
2017-07-23T06:59:27.968Z,33952
2017-07-23T07:00:27.950Z,34464
2017-07-23T07:01:27.924Z,34656
2017-07-23T07:02:27.932Z,36128
2017-07-23T07:03:27.899Z,34464
2017-07-23T07:04:27.886Z,33408
2017-07-23T07:05:27.870Z,31360
2017-07-23T07:06:27.867Z,38912
2017-07-23T07:07:27.857Z,44576
2017-07-23T07:08:27.839Z,37120
2017-07-23T07:09:27.823Z,45280
2017-07-23T07:10:27.264Z,40736
2017-07-23T07:11:27.798Z,35904
2017-07-23T07:12:27.800Z,38048
2017-07-23T07:13:27.785Z,40032
2017-07-23T07:14:27.768Z,38016
2017-07-23T07:15:27.862Z,36928
2017-07-23T07:16:27.739Z,36896
2017-07-23T07:17:27.734Z,37888
2017-07-23T07:18:27.731Z,41728
2017-07-23T07:19:27.716Z,46848
2017-07-23T07:20:27.741Z,38784
2017-07-23T07:21:27.391Z,44800
2017-07-23T07:22:27.974Z,46368
2017-07-23T07:23:27.663Z,46592
2017-07-23T07:24:27.658Z,44480
2017-07-23T07:25:27.641Z,49408
2017-07-23T07:26:27.334Z,49696
2017-07-23T07:27:27.617Z,51616
2017-07-23T07:28:27.615Z,51744
2017-07-23T07:29:27.616Z,49856
2017-07-23T07:30:27.600Z,44800
2017-07-23T07:31:27.578Z,50720
2017-07-23T07:32:27.576Z,52608
2017-07-23T07:33:27.574Z,47328
2017-07-23T07:34:27.548Z,54496
2017-07-23T07:35:27.559Z,55232
2017-07-23T07:36:27.555Z,51456
2017-07-23T07:37:27.230Z,45920
2017-07-23T07:38:27.529Z,18592
2017-07-23T07:39:27.504Z,37728
2017-07-23T07:40:27.496Z,29216
2017-07-23T07:41:27.190Z,25344
2017-07-23T07:42:27.186Z,49984
2017-07-23T07:43:27.481Z,18016
2017-07-23T07:44:27.483Z,55680
2017-07-23T07:45:27.455Z,53536
2017-07-23T07:46:27.495Z,35776
2017-07-23T07:47:27.130Z,32960
2017-07-23T07:48:27.415Z,60608
2017-07-23T07:49:27.419Z,59552
2017-07-23T07:50:27.397Z,39520
2017-07-23T07:51:27.395Z,22016
2017-07-23T07:52:27.382Z,36768
2017-07-23T07:53:27.396Z,24320
2017-07-23T07:54:27.364Z,19360
2017-07-23T07:55:27.364Z,21632
2017-07-23T07:56:27.339Z,16736
2017-07-23T07:57:27.335Z,14868
2017-07-23T07:58:27.321Z,18624
2017-07-23T07:59:27.304Z,18208
2017-07-23T08:00:27.308Z,19104
2017-07-23T08:01:27.289Z,23904
2017-07-23T08:02:27.289Z,23648
2017-07-23T08:03:27.267Z,20480
2017-07-23T08:04:27.247Z,19264
2017-07-23T08:05:27.436Z,21056
2017-07-23T08:06:26.916Z,18816
2017-07-23T08:07:27.202Z,22816
2017-07-23T08:08:27.178Z,23104
2017-07-23T08:09:27.187Z,28448
2017-07-23T08:10:26.916Z,21920
2017-07-23T08:11:27.147Z,33632
2017-07-23T08:12:27.194Z,33568
2017-07-23T08:13:27.130Z,36448
2017-07-23T08:14:26.811Z,35296
2017-07-23T08:15:27.087Z,38912
2017-07-23T08:16:27.075Z,33088
2017-07-23T08:17:27.062Z,34016
2017-07-23T08:18:26.780Z,48032
2017-07-23T08:19:27.037Z,40992
2017-07-23T08:20:27.018Z,45312
2017-07-23T08:21:27.001Z,35872
2017-07-23T08:22:26.992Z,22272
2017-07-23T08:23:26.969Z,21056
2017-07-23T08:24:26.970Z,21344
2017-07-23T08:25:26.949Z,13472
2017-07-23T08:26:26.637Z,19232
2017-07-23T08:27:26.918Z,25440
2017-07-23T08:28:27.010Z,35168
2017-07-23T08:29:26.903Z,61920
2017-07-23T08:30:26.874Z,61088
2017-07-23T08:31:26.866Z,61216
2017-07-23T08:32:26.904Z,58528
2017-07-23T08:33:26.833Z,55968
2017-07-23T08:34:26.821Z,55936
2017-07-23T08:35:26.820Z,58176
2017-07-23T08:36:26.812Z,60832
2017-07-23T08:37:26.793Z,64000
2017-07-23T08:38:26.780Z,64064
2017-07-23T08:39:26.774Z,61248
2017-07-23T08:40:26.754Z,59360
2017-07-23T08:41:26.743Z,59296
2017-07-23T08:42:26.743Z,60576
2017-07-23T08:43:26.738Z,61568
2017-07-23T08:44:26.718Z,61536
2017-07-23T08:45:26.714Z,46528
2017-07-23T08:46:26.844Z,10972
2017-07-23T08:47:26.713Z,8992
2017-07-23T08:48:26.678Z,63520
2017-07-23T08:49:26.672Z,14508
2017-07-23T08:50:26.665Z,64928
2017-07-23T08:51:26.652Z,91232
2017-07-23T08:52:26.644Z,90272
2017-07-23T08:53:26.635Z,11168
2017-07-23T08:54:26.615Z,9896
2017-07-23T08:55:26.609Z,17696
2017-07-23T08:56:26.607Z,18560
2017-07-23T08:57:26.594Z,17600
2017-07-23T08:58:26.582Z,12804
2017-07-23T08:59:26.574Z,15464
2017-07-23T09:00:26.565Z,45984
2017-07-23T09:01:26.562Z,21888
2017-07-23T09:02:26.542Z,16928
2017-07-23T09:03:26.523Z,12932
2017-07-23T09:04:26.216Z,10564
2017-07-23T09:05:26.499Z,8476
2017-07-23T09:06:26.497Z,6924
2017-07-23T09:07:26.487Z,7408
2017-07-23T09:08:26.469Z,11152
2017-07-23T09:09:26.500Z,35808
2017-07-23T09:10:26.137Z,60160
2017-07-23T09:11:26.119Z,15188
2017-07-23T09:12:26.175Z,12124
2017-07-23T09:13:26.389Z,9252
2017-07-23T09:14:26.381Z,7832
2017-07-23T09:15:26.067Z,7440
2017-07-23T09:16:26.355Z,7208
2017-07-23T09:17:26.388Z,8228
2017-07-23T09:18:26.374Z,12188
2017-07-23T09:19:26.035Z,77248
2017-07-23T09:20:26.309Z,14480
2017-07-23T09:21:26.278Z,9940
2017-07-23T09:22:26.267Z,7460
2017-07-23T09:23:26.249Z,6944
2017-07-23T09:24:25.928Z,9388
2017-07-23T09:25:26.214Z,56256
2017-07-23T09:26:26.216Z,66720
2017-07-23T09:27:26.190Z,68640
2017-07-23T09:28:26.177Z,71200
2017-07-23T09:29:26.159Z,71776
2017-07-23T09:30:26.140Z,72608
2017-07-23T09:31:25.847Z,73504
2017-07-23T09:32:25.812Z,46400
2017-07-23T09:33:26.099Z,8712
2017-07-23T09:34:26.101Z,8448
2017-07-23T09:35:26.079Z,7836
2017-07-23T09:36:26.068Z,6232
2017-07-23T09:37:26.048Z,6380
2017-07-23T09:38:26.049Z,5564
2017-07-23T09:39:26.023Z,4168
2017-07-23T09:40:26.002Z,4332
2017-07-23T09:41:25.993Z,4180
2017-07-23T09:42:25.979Z,4444
2017-07-23T09:43:25.664Z,5892
2017-07-23T09:44:25.961Z,9708
2017-07-23T09:45:25.935Z,14648
2017-07-23T09:46:25.929Z,17068
2017-07-23T09:47:25.905Z,19008
2017-07-23T09:48:25.884Z,18976
2017-07-23T09:49:25.870Z,16788
2017-07-23T09:50:25.855Z,13252
2017-07-23T09:51:26.090Z,11196
2017-07-23T09:52:25.824Z,10188
2017-07-23T09:53:25.798Z,9816
2017-07-23T09:54:25.487Z,9552
2017-07-23T09:55:25.779Z,8764
2017-07-23T09:56:25.767Z,8184
2017-07-23T09:57:25.741Z,7304
2017-07-23T09:58:25.726Z,6368
2017-07-23T09:59:25.411Z,5672
2017-07-23T10:00:25.694Z,5508
2017-07-23T10:01:25.082Z,5912
2017-07-23T10:02:25.112Z,6384
2017-07-23T10:03:25.634Z,6556
2017-07-23T10:04:25.329Z,6552
2017-07-23T10:05:25.305Z,7940
2017-07-23T10:06:25.607Z,28320
2017-07-23T10:07:25.583Z,68064
2017-07-23T10:08:25.852Z,68832
2017-07-23T10:09:25.539Z,35136
2017-07-23T10:10:25.525Z,74144
2017-07-23T10:11:25.502Z,64416
2017-07-23T10:12:25.554Z,18912
2017-07-23T10:13:25.479Z,19904
2017-07-23T10:14:25.467Z,28704
2017-07-23T10:15:25.492Z,16340
2017-07-23T10:16:25.433Z,12880
2017-07-23T10:17:25.422Z,11276
2017-07-23T10:18:25.398Z,9900
2017-07-23T10:19:25.385Z,8048
2017-07-23T10:20:25.374Z,6340
2017-07-23T10:21:25.399Z,4604
2017-07-23T10:22:25.343Z,3208
2017-07-23T10:23:25.431Z,2728
2017-07-23T10:24:25.360Z,3792
2017-07-23T10:25:25.308Z,5572
2017-07-23T10:26:24.994Z,7852
2017-07-23T10:27:25.280Z,9316
2017-07-23T10:28:25.252Z,9788
2017-07-23T10:29:25.224Z,9656
2017-07-23T10:30:25.225Z,8372
2017-07-23T10:31:25.212Z,7296
2017-07-23T10:32:25.229Z,6520
2017-07-23T10:33:25.158Z,6156
2017-07-23T10:34:24.842Z,5968
2017-07-23T10:35:25.185Z,5732
2017-07-23T10:36:25.120Z,5684
2017-07-23T10:37:25.094Z,5908
2017-07-23T10:38:25.112Z,6552
2017-07-23T10:39:25.062Z,7112
2017-07-23T10:40:25.053Z,7856
2017-07-23T10:41:25.033Z,9032
2017-07-23T10:42:24.709Z,9736
2017-07-23T10:43:24.689Z,10144
2017-07-23T10:44:24.978Z,10836
2017-07-23T10:45:24.961Z,12148
2017-07-23T10:46:24.993Z,13976
2017-07-23T10:47:24.615Z,22688
2017-07-23T10:48:24.945Z,18656
2017-07-23T10:49:24.895Z,16704
2017-07-23T10:50:24.864Z,14036
2017-07-23T10:51:24.846Z,11972
2017-07-23T10:52:24.827Z,10652
2017-07-23T10:53:24.863Z,9592
2017-07-23T10:54:24.798Z,7584
2017-07-23T10:55:24.771Z,5188
2017-07-23T10:56:24.754Z,3672
2017-07-23T10:57:24.738Z,3148
2017-07-23T10:58:24.721Z,3204
2017-07-23T10:59:24.752Z,3456
2017-07-23T11:00:24.683Z,3928
2017-07-23T11:01:24.665Z,5156
2017-07-23T11:02:24.947Z,6780
2017-07-23T11:03:24.634Z,9464
2017-07-23T11:04:24.628Z,116352
2017-07-23T11:05:24.588Z,116096
2017-07-23T11:06:24.570Z,112896
2017-07-23T11:07:24.548Z,109696
2017-07-23T11:08:24.237Z,107680
2017-07-23T11:09:24.535Z,105760
2017-07-23T11:10:24.501Z,14868
2017-07-23T11:11:24.180Z,13612
2017-07-23T11:12:24.467Z,13484
2017-07-23T11:13:24.457Z,12584
2017-07-23T11:14:24.448Z,11724
2017-07-23T11:15:24.418Z,9240
2017-07-23T11:16:24.426Z,7328
2017-07-23T11:17:24.386Z,10132
2017-07-23T11:18:24.363Z,11272
2017-07-23T11:19:24.361Z,11784
2017-07-23T11:20:24.349Z,11408
2017-07-23T11:21:24.325Z,11452
2017-07-23T11:22:24.298Z,12352
2017-07-23T11:23:24.289Z,13380
2017-07-23T11:24:24.316Z,14356
2017-07-23T11:25:24.269Z,16608
2017-07-23T11:26:24.238Z,19936
2017-07-23T11:27:24.215Z,22944
2017-07-23T11:28:24.203Z,23904
2017-07-23T11:29:24.181Z,24096
2017-07-23T11:30:24.167Z,22976
2017-07-23T11:31:24.149Z,21312
2017-07-23T11:32:24.130Z,20192
2017-07-23T11:33:24.109Z,20064
2017-07-23T11:34:24.093Z,20928
2017-07-23T11:35:24.088Z,23392
2017-07-23T11:36:24.063Z,24864
2017-07-23T11:37:24.049Z,24608
2017-07-23T11:38:23.739Z,24512
2017-07-23T11:39:24.010Z,22624
2017-07-23T11:40:23.688Z,21248
2017-07-23T11:41:24.023Z,17856
2017-07-23T11:42:23.955Z,15248
2017-07-23T11:43:23.946Z,14512
2017-07-23T11:44:23.975Z,16792
2017-07-23T11:45:23.906Z,19104
2017-07-23T11:46:23.937Z,20384
2017-07-23T11:47:23.872Z,17760
2017-07-23T11:48:23.856Z,13936
2017-07-23T11:49:23.834Z,13548
2017-07-23T11:50:23.818Z,13656
2017-07-23T11:51:23.807Z,12504
2017-07-23T11:52:23.796Z,11756
2017-07-23T11:53:23.482Z,12552
2017-07-23T11:54:24.054Z,13876
2017-07-23T11:55:23.740Z,14716
2017-07-23T11:56:23.727Z,14880
2017-07-23T11:57:23.700Z,14856
2017-07-23T11:58:23.683Z,14920
2017-07-23T11:59:23.667Z,14536
2017-07-23T12:00:23.046Z,15524
2017-07-23T12:01:23.336Z,17076
2017-07-23T12:02:23.614Z,18848
2017-07-23T12:03:23.605Z,20608
2017-07-23T12:04:23.581Z,22048
2017-07-23T12:05:23.571Z,22272
2017-07-23T12:06:23.544Z,23040
2017-07-23T12:07:23.535Z,23040
2017-07-23T12:08:23.213Z,23136
2017-07-23T12:09:23.193Z,23648
2017-07-23T12:10:23.482Z,23744
2017-07-23T12:11:23.470Z,23712
2017-07-23T12:12:23.448Z,23264
2017-07-23T12:13:23.428Z,23232
2017-07-23T12:14:23.413Z,22144
2017-07-23T12:15:23.392Z,21056
2017-07-23T12:16:23.384Z,20608
2017-07-23T12:17:23.358Z,20224
2017-07-23T12:18:23.386Z,19584
2017-07-23T12:19:23.328Z,19744
2017-07-23T12:20:23.006Z,20032
2017-07-23T12:21:23.297Z,19296
2017-07-23T12:22:23.287Z,17696
2017-07-23T12:23:23.272Z,15384
2017-07-23T12:24:23.243Z,14032
2017-07-23T12:25:22.928Z,12256
2017-07-23T12:26:22.905Z,12240
2017-07-23T12:27:23.191Z,15680
2017-07-23T12:28:23.176Z,13660
2017-07-23T12:29:23.227Z,12648
2017-07-23T12:30:22.841Z,12124
2017-07-23T12:31:23.128Z,10660
2017-07-23T12:32:23.110Z,9836
2017-07-23T12:33:23.100Z,9056
2017-07-23T12:34:23.075Z,7984
2017-07-23T12:35:23.058Z,7992
2017-07-23T12:36:23.037Z,10616
2017-07-23T12:37:23.071Z,12124
2017-07-23T12:38:23.006Z,10724
2017-07-23T12:39:22.998Z,8932
2017-07-23T12:40:22.983Z,9676
2017-07-23T12:41:22.960Z,10064
2017-07-23T12:42:22.647Z,9420
2017-07-23T12:43:22.922Z,9100
2017-07-23T12:44:22.601Z,8288
2017-07-23T12:45:22.887Z,9216
2017-07-23T12:46:22.875Z,8656
2017-07-23T12:47:22.851Z,8548
2017-07-23T12:48:22.887Z,9220
2017-07-23T12:49:22.819Z,9136
2017-07-23T12:50:22.803Z,8472
2017-07-23T12:51:22.786Z,10264
2017-07-23T12:52:22.767Z,14184
2017-07-23T12:53:22.742Z,12824
2017-07-23T12:54:22.439Z,10136
2017-07-23T12:55:22.713Z,9644
2017-07-23T12:56:22.740Z,12252
2017-07-23T12:57:22.376Z,12072
2017-07-23T12:58:22.363Z,11992
2017-07-23T12:59:22.644Z,13268
2017-07-23T13:00:22.327Z,12948
2017-07-23T13:01:22.620Z,13404
2017-07-23T13:02:22.294Z,14428
2017-07-23T13:03:22.569Z,16788
2017-07-23T13:04:22.561Z,16616
2017-07-23T13:05:22.297Z,15940
2017-07-23T13:06:22.524Z,15252
2017-07-23T13:07:22.512Z,13748
2017-07-23T13:08:22.503Z,14416
2017-07-23T13:09:22.474Z,14612
2017-07-23T13:10:22.459Z,12936
2017-07-23T13:11:22.436Z,12212
2017-07-23T13:12:22.127Z,12164
2017-07-23T13:13:22.405Z,10372
2017-07-23T13:14:22.401Z,9676
2017-07-23T13:15:22.371Z,10400
2017-07-23T13:16:22.356Z,12076
2017-07-23T13:17:22.344Z,14092
2017-07-23T13:18:22.318Z,15844
2017-07-23T13:19:22.298Z,16896
2017-07-23T13:20:22.285Z,16272
2017-07-23T13:21:22.271Z,14940
2017-07-23T13:22:22.263Z,15368
2017-07-23T13:23:22.237Z,17280
2017-07-23T13:24:21.920Z,17984
2017-07-23T13:25:22.204Z,18304
2017-07-23T13:26:22.240Z,18784
2017-07-23T13:27:22.178Z,18976
2017-07-23T13:28:22.198Z,18208
2017-07-23T13:29:21.835Z,17664